createdAt,value
2023-02-02T00:00:51.013Z,3.38
2023-02-02T00:03:37.670Z,2.72
2023-02-02T00:06:24.767Z,3.78
2023-02-02T00:09:12.305Z,2.72
2023-02-02T00:11:59.294Z,3.05
2023-02-02T00:14:44.788Z,2.28
2023-02-02T00:17:30.032Z,2.45
2023-02-02T00:20:16.023Z,2.95
2023-02-02T00:23:01.980Z,3.00
2023-02-02T00:25:50.171Z,2.72
2023-02-02T00:28:35.317Z,2.72
2023-02-02T00:31:20.974Z,3.20
2023-02-02T00:34:06.678Z,2.22
2023-02-02T00:36:52.461Z,2.15
2023-02-02T00:39:37.905Z,1.50
2023-02-02T00:42:23.496Z,1.25
2023-02-02T00:45:16.884Z,1.20
2023-02-02T00:48:03.477Z,1.65
2023-02-02T00:50:48.744Z,1.05
2023-02-02T00:53:34.363Z,0.90
2023-02-02T00:56:19.692Z,1.23
2023-02-02T00:59:05.204Z,1.02
2023-02-02T01:01:50.431Z,0.90
2023-02-02T01:04:36.024Z,1.13
2023-02-02T01:07:21.444Z,1.00
2023-02-02T01:10:09.654Z,1.02
2023-02-02T01:12:55.060Z,0.90
2023-02-02T01:15:40.370Z,1.25
2023-02-02T01:18:26.328Z,1.00
2023-02-02T01:21:12.780Z,0.80
2023-02-02T01:23:58.273Z,1.15
2023-02-02T01:26:43.722Z,1.38
2023-02-02T01:29:29.181Z,1.50
2023-02-02T01:32:14.667Z,1.60
2023-02-02T01:34:59.988Z,1.55
2023-02-02T01:37:45.479Z,1.55
2023-02-02T01:40:30.922Z,1.95
2023-02-02T01:43:26.554Z,2.03
2023-02-02T01:46:17.294Z,1.92
2023-02-02T01:49:11.204Z,1.77
2023-02-02T01:51:59.257Z,2.08
2023-02-02T01:54:50.826Z,2.50
2023-02-02T01:57:52.400Z,2.97
2023-02-02T02:00:41.409Z,2.40
2023-02-02T02:03:31.860Z,2.95
2023-02-02T02:06:19.871Z,3.22
2023-02-02T02:09:08.060Z,3.20
2023-02-02T02:11:54.588Z,2.92
2023-02-02T02:15:00.416Z,4.00
2023-02-02T02:18:03.190Z,3.75
2023-02-02T02:21:50.786Z,3.08
2023-02-02T02:25:26.663Z,3.67
2023-02-02T02:28:44.112Z,3.72
2023-02-02T02:31:59.351Z,3.10
2023-02-02T02:35:14.007Z,3.60
2023-02-02T02:38:23.747Z,3.85
2023-02-02T02:41:14.305Z,3.10
2023-02-02T02:44:04.985Z,3.80
2023-02-02T02:46:51.351Z,3.50
2023-02-02T02:49:48.829Z,3.75
2023-02-02T02:52:36.137Z,3.60
2023-02-02T02:55:22.812Z,3.15
2023-02-02T02:58:14.042Z,3.50
2023-02-02T03:01:07.494Z,4.03
2023-02-02T03:04:14.394Z,3.70
2023-02-02T03:07:05.936Z,3.65
2023-02-02T03:09:52.936Z,3.83
2023-02-02T03:12:46.933Z,4.28
2023-02-02T03:15:32.635Z,3.60
2023-02-02T03:18:22.228Z,3.92
2023-02-02T03:21:08.218Z,3.58
2023-02-02T03:23:53.413Z,4.10
2023-02-02T03:26:39.220Z,4.10
2023-02-02T03:29:25.142Z,3.80
2023-02-02T03:32:10.736Z,3.75
2023-02-02T03:34:56.622Z,3.50
2023-02-02T03:37:42.061Z,3.35
2023-02-02T03:40:28.708Z,4.22
2023-02-02T03:43:19.392Z,3.30
2023-02-02T03:46:06.225Z,3.30
2023-02-02T03:48:51.396Z,2.60
2023-02-02T03:51:37.246Z,3.22
2023-02-02T03:54:22.480Z,3.28
2023-02-02T03:57:07.977Z,3.97
2023-02-02T03:59:53.561Z,3.50
2023-02-02T04:02:39.448Z,3.58
2023-02-02T04:05:25.350Z,4.00
2023-02-02T04:08:11.022Z,3.10
2023-02-02T04:10:56.242Z,3.40
2023-02-02T04:13:43.478Z,3.15
2023-02-02T04:16:29.755Z,3.55
2023-02-02T04:19:15.127Z,3.03
2023-02-02T04:22:00.343Z,3.40
2023-02-02T04:24:45.832Z,3.65
2023-02-02T04:27:34.296Z,3.17
2023-02-02T04:30:20.112Z,3.50
2023-02-02T04:33:05.344Z,3.22
2023-02-02T04:35:51.365Z,3.78
2023-02-02T04:38:36.967Z,3.17
2023-02-02T04:41:23.050Z,3.72
2023-02-02T04:44:15.183Z,3.20
2023-02-02T04:47:00.643Z,3.85
2023-02-02T04:49:45.982Z,3.80
2023-02-02T04:52:31.706Z,3.13
2023-02-02T04:55:17.424Z,3.50
2023-02-02T04:58:03.156Z,3.85
2023-02-02T05:00:48.717Z,3.80
2023-02-02T05:03:34.261Z,3.55
2023-02-02T05:06:19.875Z,2.95
2023-02-02T05:09:05.536Z,3.28
2023-02-02T05:11:51.156Z,2.63
2023-02-02T05:14:36.994Z,3.20
2023-02-02T05:17:22.685Z,3.30
2023-02-02T05:20:09.119Z,3.38
2023-02-02T05:22:54.794Z,3.20
2023-02-02T05:25:40.293Z,3.28
2023-02-02T05:28:25.744Z,3.15
2023-02-02T05:31:11.582Z,2.88
2023-02-02T05:33:56.890Z,3.15
2023-02-02T05:36:42.536Z,2.58
2023-02-02T05:39:27.949Z,3.13
2023-02-02T05:42:13.648Z,3.20
2023-02-02T05:44:59.049Z,2.88
2023-02-02T05:47:44.625Z,2.75
2023-02-02T05:50:29.760Z,2.83
2023-02-02T05:53:23.697Z,2.95
2023-02-02T05:56:08.872Z,2.90
2023-02-02T05:58:54.593Z,3.58
2023-02-02T06:01:40.140Z,3.33
2023-02-02T06:04:25.846Z,2.80
2023-02-02T06:07:12.549Z,3.33
2023-02-02T06:09:58.310Z,2.90
2023-02-02T06:12:44.210Z,2.53
2023-02-02T06:15:29.817Z,3.10
2023-02-02T06:18:15.450Z,2.97
2023-02-02T06:21:02.116Z,3.03
2023-02-02T06:23:47.444Z,3.08
2023-02-02T06:26:33.068Z,3.10
2023-02-02T06:29:18.510Z,3.25
2023-02-02T06:32:04.303Z,3.33
2023-02-02T06:34:49.566Z,3.03
2023-02-02T06:37:34.921Z,3.78
2023-02-02T06:40:20.701Z,3.10
2023-02-02T06:43:06.280Z,3.80
2023-02-02T06:45:51.693Z,2.95
2023-02-02T06:48:37.352Z,3.47
2023-02-02T06:51:22.688Z,3.15
2023-02-02T06:54:08.390Z,3.15
2023-02-02T06:56:54.440Z,2.95
2023-02-02T06:59:41.036Z,3.22
2023-02-02T07:02:26.949Z,3.40
2023-02-02T07:05:12.317Z,3.40
2023-02-02T07:07:57.725Z,3.40
2023-02-02T07:11:13.484Z,3.03
2023-02-02T07:13:50.065Z,2.88
2023-02-02T07:16:35.458Z,3.50
2023-02-02T07:19:20.715Z,3.50
2023-02-02T07:22:05.968Z,3.50
2023-02-02T07:24:51.305Z,3.35
2023-02-02T07:27:36.661Z,2.95
2023-02-02T07:30:22.501Z,3.50
2023-02-02T07:33:08.140Z,4.30
2023-02-02T07:35:53.492Z,3.20
2023-02-02T07:38:39.059Z,3.05
2023-02-02T07:41:24.734Z,3.10
2023-02-02T07:44:17.188Z,3.45
2023-02-02T07:47:02.953Z,3.03
2023-02-02T07:49:48.442Z,3.33
2023-02-02T07:52:33.853Z,2.75
2023-02-02T07:55:19.787Z,3.80
2023-02-02T07:58:05.104Z,2.95
2023-02-02T08:00:50.771Z,3.50
2023-02-02T08:03:37.575Z,3.50
2023-02-02T08:06:34.290Z,3.22
2023-02-02T08:09:19.608Z,3.03
2023-02-02T08:12:05.117Z,3.30
2023-02-02T08:14:50.720Z,2.70
2023-02-02T08:17:37.476Z,3.70
2023-02-02T08:20:22.717Z,3.00
2023-02-02T08:23:13.880Z,2.97
2023-02-02T08:26:14.621Z,2.90
2023-02-02T08:29:03.609Z,2.65
2023-02-02T08:31:49.414Z,3.00
2023-02-02T08:34:36.875Z,2.75
2023-02-02T08:37:21.998Z,2.70
2023-02-02T08:40:08.881Z,3.22
2023-02-02T08:42:54.970Z,2.47
2023-02-02T08:46:02.970Z,2.78
2023-02-02T08:48:48.766Z,3.10
2023-02-02T08:51:34.097Z,2.78
2023-02-02T08:54:20.293Z,2.85
2023-02-02T08:57:05.783Z,3.25
2023-02-02T08:59:51.199Z,2.90
2023-02-02T09:02:36.567Z,3.08
2023-02-02T09:05:22.319Z,3.00
2023-02-02T09:08:07.820Z,2.60
2023-02-02T09:10:53.009Z,2.95
2023-02-02T09:13:40.412Z,2.88
2023-02-02T09:16:27.270Z,3.65
2023-02-02T09:19:12.887Z,3.33
2023-02-02T09:21:58.519Z,2.42
2023-02-02T09:24:43.718Z,2.78
2023-02-02T09:27:29.278Z,3.05
2023-02-02T09:30:14.707Z,2.40
2023-02-02T09:33:00.097Z,3.22
2023-02-02T09:35:45.511Z,2.55
2023-02-02T09:38:30.938Z,3.53
2023-02-02T09:41:38.333Z,2.72
2023-02-02T09:44:45.968Z,3.33
2023-02-02T09:47:50.028Z,2.92
2023-02-02T09:50:47.656Z,2.90
2023-02-02T09:54:00.444Z,3.30
2023-02-02T09:56:51.378Z,2.45
2023-02-02T09:59:41.716Z,3.42
2023-02-02T10:02:33.279Z,2.70
2023-02-02T10:05:25.663Z,2.58
2023-02-02T10:08:28.975Z,2.78
2023-02-02T10:11:28.936Z,2.90
2023-02-02T10:14:29.747Z,2.58
2023-02-02T10:17:21.197Z,2.65
2023-02-02T10:20:28.409Z,3.53
2023-02-02T10:23:33.174Z,2.70
2023-02-02T10:26:30.296Z,2.55
2023-02-02T10:29:24.905Z,2.53
2023-02-02T10:32:22.963Z,2.60
2023-02-02T10:35:20.328Z,2.63
2023-02-02T10:38:36.528Z,2.50
2023-02-02T10:41:41.547Z,2.70
2023-02-02T10:44:26.771Z,2.72
2023-02-02T10:47:23.406Z,2.40
2023-02-02T10:50:21.816Z,2.40
2023-02-02T10:53:13.356Z,2.20
2023-02-02T10:56:05.772Z,3.22
2023-02-02T10:59:15.262Z,2.53
2023-02-02T11:02:11.588Z,2.35
2023-02-02T11:05:19.032Z,2.65
2023-02-02T11:08:19.434Z,2.53
2023-02-02T11:11:12.900Z,1.90
2023-02-02T11:14:09.321Z,2.28
2023-02-02T11:17:04.884Z,2.50
2023-02-02T11:19:51.035Z,2.35
2023-02-02T11:22:40.211Z,2.38
2023-02-02T11:25:39.227Z,1.80
2023-02-02T11:28:30.221Z,2.25
2023-02-02T11:31:36.321Z,2.60
2023-02-02T11:34:24.228Z,2.20
2023-02-02T11:37:15.123Z,1.80
2023-02-02T11:40:46.068Z,2.20
2023-02-02T11:43:41.270Z,2.10
2023-02-02T11:46:32.737Z,1.90
2023-02-02T11:49:21.565Z,2.80
2023-02-02T11:52:16.871Z,2.33
2023-02-02T11:55:15.172Z,2.30
2023-02-02T11:58:48.217Z,2.28
2023-02-02T12:01:43.837Z,2.05
2023-02-02T12:04:30.891Z,2.58
2023-02-02T12:07:23.440Z,1.75
2023-02-02T12:10:26.026Z,2.40
2023-02-02T12:13:29.362Z,2.63
2023-02-02T12:16:26.704Z,1.98
2023-02-02T12:19:34.905Z,2.35
2023-02-02T12:22:36.010Z,1.70
2023-02-02T12:25:33.623Z,2.15
2023-02-02T12:28:42.284Z,2.10
2023-02-02T12:31:50.402Z,2.63
2023-02-02T12:34:55.917Z,1.98
2023-02-02T12:37:53.172Z,1.70
2023-02-02T12:41:17.824Z,1.77
2023-02-02T12:44:23.236Z,1.95
2023-02-02T12:47:11.425Z,2.15
2023-02-02T12:50:08.651Z,1.70
2023-02-02T12:53:23.837Z,1.95
2023-02-02T12:56:24.323Z,2.22
2023-02-02T12:59:28.233Z,2.30
2023-02-02T13:02:56.653Z,2.55
2023-02-02T13:06:15.839Z,2.10
2023-02-02T13:09:09.823Z,1.90
2023-02-02T13:12:08.965Z,1.83
2023-02-02T13:15:09.073Z,1.80
2023-02-02T13:18:00.185Z,1.80
2023-02-02T13:21:05.523Z,2.00
2023-02-02T13:23:53.665Z,2.10
2023-02-02T13:26:44.065Z,2.00
2023-02-02T13:29:47.770Z,1.70
2023-02-02T13:32:38.007Z,1.90
2023-02-02T13:35:28.731Z,1.92
2023-02-02T13:38:34.367Z,1.80
2023-02-02T13:41:19.941Z,2.10
2023-02-02T13:44:35.089Z,2.40
2023-02-02T13:47:44.577Z,2.28
2023-02-02T13:50:31.974Z,2.00
2023-02-02T13:53:29.640Z,2.45
2023-02-02T13:56:36.515Z,2.30
2023-02-02T13:59:43.537Z,2.92
2023-02-02T14:02:46.400Z,2.33
2023-02-02T14:05:33.396Z,2.17
2023-02-02T14:08:20.855Z,2.30
2023-02-02T14:11:07.935Z,2.40
2023-02-02T14:14:16.697Z,2.10
2023-02-02T14:17:04.766Z,2.67
2023-02-02T14:19:55.561Z,2.60
2023-02-02T14:22:50.802Z,2.20
2023-02-02T14:25:44.904Z,2.50
2023-02-02T14:28:45.936Z,2.53
2023-02-02T14:31:53.810Z,2.20
2023-02-02T14:34:40.117Z,2.35
2023-02-02T14:37:28.054Z,2.58
2023-02-02T14:40:16.489Z,3.13
2023-02-02T14:43:44.204Z,3.20
2023-02-02T14:46:40.705Z,2.30
2023-02-02T14:49:34.500Z,2.38
2023-02-02T14:52:23.067Z,2.88
2023-02-02T14:55:19.672Z,2.70
2023-02-02T14:58:06.677Z,2.67
2023-02-02T15:01:00.435Z,2.50
2023-02-02T15:03:56.681Z,2.75
2023-02-02T15:06:43.069Z,3.05
2023-02-02T15:09:38.205Z,2.30
2023-02-02T15:12:32.203Z,2.70
2023-02-02T15:15:23.142Z,2.40
2023-02-02T15:18:33.346Z,2.30
2023-02-02T15:21:21.976Z,2.28
2023-02-02T15:24:21.454Z,2.78
2023-02-02T15:27:17.283Z,2.70
2023-02-02T15:30:08.237Z,2.83
2023-02-02T15:32:55.124Z,2.60
2023-02-02T15:35:41.521Z,2.50
2023-02-02T15:38:36.005Z,2.42
2023-02-02T15:41:48.137Z,2.10
2023-02-02T15:44:37.157Z,2.63
2023-02-02T15:47:31.227Z,2.40
2023-02-02T15:50:20.263Z,2.30
2023-02-02T15:53:05.847Z,2.47
2023-02-02T15:55:51.919Z,2.35
2023-02-02T15:58:39.059Z,2.10
2023-02-02T16:01:27.090Z,2.33
2023-02-02T16:04:31.345Z,2.22
2023-02-02T16:07:19.868Z,2.15
2023-02-02T16:10:07.626Z,2.00
2023-02-02T16:12:53.492Z,2.75
2023-02-02T16:15:38.789Z,2.80
2023-02-02T16:18:24.384Z,2.40
2023-02-02T16:21:18.097Z,2.70
2023-02-02T16:24:07.227Z,2.40
2023-02-02T16:26:54.357Z,2.85
2023-02-02T16:29:41.105Z,3.05
2023-02-02T16:32:26.597Z,2.55
2023-02-02T16:35:38.511Z,2.38
2023-02-02T16:38:29.891Z,3.47
2023-02-02T16:41:26.114Z,2.90
2023-02-02T16:44:37.099Z,2.88
2023-02-02T16:47:33.447Z,2.90
2023-02-02T16:50:26.381Z,2.75
2023-02-02T16:53:22.591Z,2.97
2023-02-02T16:56:08.912Z,3.00
2023-02-02T16:58:57.975Z,2.97
2023-02-02T17:01:49.840Z,2.67
2023-02-02T17:04:35.477Z,2.57
2023-02-02T17:07:21.934Z,3.15
2023-02-02T17:10:20.800Z,3.00
2023-02-02T17:13:31.153Z,2.88
2023-02-02T17:16:20.176Z,2.90
2023-02-02T17:19:05.748Z,2.70
2023-02-02T17:21:51.242Z,2.60
2023-02-02T17:24:36.817Z,2.55
2023-02-02T17:27:33.888Z,2.83
2023-02-02T17:30:20.160Z,2.40
2023-02-02T17:33:09.462Z,2.97
2023-02-02T17:35:56.269Z,2.88
2023-02-02T17:38:42.002Z,3.17
2023-02-02T17:41:27.454Z,2.80
2023-02-02T17:44:12.753Z,2.42
2023-02-02T17:46:58.229Z,2.13
2023-02-02T17:49:43.582Z,2.53
2023-02-02T17:52:29.001Z,2.45
2023-02-02T17:55:27.303Z,2.50
2023-02-02T17:58:16.922Z,2.90
2023-02-02T18:01:02.413Z,2.92
2023-02-02T18:03:48.103Z,3.38
2023-02-02T18:06:33.273Z,2.67
2023-02-02T18:09:18.896Z,2.60
2023-02-02T18:12:04.535Z,2.60
2023-02-02T18:14:50.175Z,2.75
2023-02-02T18:17:35.558Z,2.72
2023-02-02T18:20:21.184Z,3.10
2023-02-02T18:23:06.651Z,3.35
2023-02-02T18:25:54.891Z,3.35
2023-02-02T18:28:40.431Z,2.88
2023-02-02T18:31:26.885Z,2.70
2023-02-02T18:34:12.698Z,2.50
2023-02-02T18:36:58.615Z,2.72
2023-02-02T18:39:45.027Z,3.13
2023-02-02T18:42:32.142Z,2.60
2023-02-02T18:45:17.789Z,2.88
2023-02-02T18:48:03.172Z,3.35
2023-02-02T18:50:48.747Z,2.45
2023-02-02T18:53:34.853Z,2.33
2023-02-02T18:56:20.210Z,2.47
2023-02-02T18:59:06.677Z,2.47
2023-02-02T19:01:52.194Z,2.53
2023-02-02T19:04:37.565Z,2.22
2023-02-02T19:07:41.440Z,2.45
2023-02-02T19:10:28.083Z,2.22
2023-02-02T19:13:19.337Z,2.35
2023-02-02T19:16:12.737Z,2.58
2023-02-02T19:19:02.224Z,2.67
2023-02-02T19:21:48.059Z,2.53
2023-02-02T19:24:39.615Z,2.30
2023-02-02T19:27:28.925Z,2.95
2023-02-02T19:30:21.441Z,2.70
2023-02-02T19:35:55.614Z,2.40
2023-02-02T19:38:41.181Z,2.33
2023-02-02T19:41:26.711Z,3.17
2023-02-02T19:44:23.706Z,2.15
2023-02-02T19:47:31.478Z,2.70
2023-02-02T19:50:20.650Z,3.20
2023-02-02T19:53:28.448Z,2.80
2023-02-02T19:56:33.806Z,3.00
2023-02-02T19:59:20.838Z,3.63
2023-02-02T20:02:28.958Z,2.70
2023-02-02T20:05:20.695Z,3.10
2023-02-02T20:08:24.197Z,3.47
2023-02-02T20:11:32.250Z,3.13
2023-02-02T20:14:28.361Z,2.65
2023-02-02T20:17:23.003Z,2.85
2023-02-02T20:20:25.696Z,3.40
2023-02-02T20:23:29.777Z,2.20
2023-02-02T20:26:28.924Z,2.47
2023-02-02T20:29:23.435Z,3.75
2023-02-02T20:32:21.502Z,3.03
2023-02-02T20:35:24.848Z,2.45
2023-02-02T20:38:23.924Z,2.67
2023-02-02T20:41:09.194Z,2.15
2023-02-02T20:43:54.489Z,2.33
2023-02-02T20:46:40.358Z,2.47
2023-02-02T20:49:26.649Z,1.80
2023-02-02T20:52:21.414Z,2.50
2023-02-02T20:55:07.580Z,2.53
2023-02-02T20:57:53.011Z,2.45
2023-02-02T21:00:38.809Z,2.75
2023-02-02T21:03:24.028Z,2.53
2023-02-02T21:06:09.334Z,2.40
2023-02-02T21:08:54.617Z,2.50
2023-02-02T21:11:40.002Z,2.40
2023-02-02T21:14:25.432Z,2.28
2023-02-02T21:17:15.169Z,2.03
2023-02-02T21:20:01.068Z,2.15
2023-02-02T21:22:46.429Z,1.98
2023-02-02T21:25:31.846Z,2.45
2023-02-02T21:28:17.587Z,2.17
2023-02-02T21:31:03.648Z,2.20
2023-02-02T21:33:50.574Z,2.40
2023-02-02T21:36:44.099Z,2.50
2023-02-02T21:39:33.815Z,2.03
2023-02-02T21:42:21.507Z,2.72
2023-02-02T21:45:29.072Z,2.65
2023-02-02T21:48:27.508Z,2.15
2023-02-02T21:51:22.826Z,2.20
2023-02-02T21:54:33.220Z,1.80
2023-02-02T21:57:21.831Z,1.90
2023-02-02T22:00:27.697Z,1.98
2023-02-02T22:03:33.880Z,2.00
2023-02-02T22:06:34.938Z,2.25
2023-02-02T22:09:25.944Z,2.38
2023-02-02T22:12:20.359Z,2.50
2023-02-02T22:15:18.483Z,2.00
2023-02-02T22:18:24.393Z,2.10
2023-02-02T22:21:13.955Z,2.00
2023-02-02T22:24:00.530Z,2.10
2023-02-02T22:26:47.333Z,1.85
2023-02-02T22:29:35.153Z,1.80
2023-02-02T22:32:20.553Z,1.88
2023-02-02T22:35:06.198Z,2.60
2023-02-02T22:37:51.517Z,2.35
2023-02-02T22:40:37.971Z,3.40
2023-02-02T22:43:23.550Z,2.70
2023-02-02T22:46:09.066Z,2.67
2023-02-02T22:48:54.443Z,2.85
2023-02-02T22:51:40.395Z,3.10
2023-02-02T22:54:26.341Z,2.50
2023-02-02T22:57:11.548Z,2.75
2023-02-02T22:59:57.194Z,2.33
2023-02-02T23:02:43.419Z,2.75
2023-02-02T23:05:29.108Z,2.72
2023-02-02T23:08:14.464Z,2.40
2023-02-02T23:10:59.812Z,2.53
2023-02-02T23:13:45.369Z,2.10
2023-02-02T23:16:30.616Z,3.17
2023-02-02T23:19:15.943Z,2.60
2023-02-02T23:22:01.253Z,2.53
2023-02-02T23:24:46.817Z,2.72
2023-02-02T23:27:32.248Z,2.28
2023-02-02T23:30:20.372Z,3.10
2023-02-02T23:33:05.651Z,2.75
2023-02-02T23:35:51.124Z,3.22
2023-02-02T23:38:36.736Z,2.88
2023-02-02T23:41:22.170Z,2.60
2023-02-02T23:44:07.557Z,2.72
2023-02-02T23:46:53.990Z,2.60
2023-02-02T23:49:39.847Z,2.20
2023-02-02T23:52:25.062Z,2.60
2023-02-02T23:55:10.971Z,2.60
2023-02-02T23:57:56.375Z,3.05
